Hovedside
METAR-TAF:

METAR-TAF

Lufthavner :

Seattle / Tacoma, Washington, USA

Seattle

breddegrad: 47-26-41N, lengdegrad: 122-18-49W, høyde over havet: 130 m

Gjeldene værobservasjon

Denne rapporten ble laget for 43 minutter siden, klokken 11:53 UTC
Vind 11 kt fra Nord
Temperatur 11°C
Luftfuktighet 54%
Trykk 1023 hPa
Sikt: 16.1 km
Skyfri himmel

METAR: KSEA 241153Z 01011KT 10SM CLR 11/02 A3020 RMK AO2 SLP232 T01110017 10161 20094 56005

Tid: 05:36 (12:36 UTC)

Varsel

Denne rapporten ble laget for 1 time og 3 minutter siden, klokken 11:33 UTC
Varsel gyldig fra 24. klokken 12 UTC til 25. klokken 18 UTC
Vind 9 kt fra Nord-nordøst
Sikt: 10 km
Spredte skyer i en høyde av 20000 ft
Fra 24. klokken 2000 UTC
Vind 11 kt fra Nord
Sikt: 10 km
Spredte skyer i en høyde av 20000 ft
Fra 25. klokken 0900 UTC
Vind 10 kt fra Nord-nordøst
Sikt: 10 km
Skyfri himmel

TAF: KSEA 241133Z 2412/2518 03009KT P6SM SCT200 FM242000 36011KT P6SM SCT200 FM250900 03010KT P6SM SKC

Værobservasjoner og værvarsel for over 4000 flyplasser (METAR- og TAF-rapporter).

Tilgjengelige stasjoner er representert av de røde og gule prikkene på kartet.

Hold musepekeren over prikken for å se navnet på stasjonen.

Klikk så for å se værobservasjoner og -varsler.

For å forandre kartet kan du klikke på den grønne knappen med svart kryss for å zoome inn, på den grønne knappen med strek for å zoome ut, eller på de grønne pilene for å se tilstøtende kart.


METAR-TAF: